createdAt,value
2019-02-20T00:02:01.242Z,97.80
2019-02-20T00:06:58.326Z,97.70
2019-02-20T00:09:27.094Z,97.70
2019-02-20T00:11:55.854Z,97.80
2019-02-20T00:14:24.615Z,98.00
2019-02-20T00:16:53.384Z,98.00
2019-02-20T00:19:22.153Z,98.10
2019-02-20T00:21:50.922Z,98.00
2019-02-20T00:24:19.756Z,97.90
2019-02-20T00:26:48.520Z,97.70
2019-02-20T00:29:17.389Z,97.70
2019-02-20T00:31:46.218Z,98.20
2019-02-20T00:34:15.065Z,98.90
2019-02-20T00:39:12.281Z,97.60
2019-02-20T00:44:25.896Z,98.20
2019-02-20T00:47:16.280Z,98.00
2019-02-20T00:49:47.852Z,97.80
2019-02-20T00:52:34.663Z,98.20
2019-02-20T00:55:03.643Z,98.10
2019-02-20T00:57:32.404Z,98.20
2019-02-20T01:00:01.178Z,98.10
2019-02-20T01:02:30.013Z,98.10
2019-02-20T01:04:58.777Z,98.20
2019-02-20T01:14:52.449Z,98.20
2019-02-20T01:17:21.460Z,98.20
2019-02-20T01:19:50.224Z,98.20
2019-02-20T01:22:18.977Z,98.20
2019-02-20T01:24:47.744Z,98.40
2019-02-20T01:27:16.512Z,98.30
2019-02-20T01:29:45.304Z,98.30
2019-02-20T01:32:14.148Z,99.20
2019-02-20T01:34:42.929Z,98.20
2019-02-20T01:37:11.780Z,98.00
2019-02-20T01:39:40.533Z,98.10
2019-02-20T01:42:09.372Z,98.30
2019-02-20T01:44:38.141Z,98.40
2019-02-20T01:47:07.167Z,98.40
2019-02-20T01:49:35.936Z,98.40
2019-02-20T01:52:04.856Z,98.70
2019-02-20T01:54:33.793Z,98.50
2019-02-20T01:57:02.851Z,98.40
2019-02-20T01:59:31.999Z,98.40
2019-02-20T02:02:00.868Z,98.50
2019-02-20T02:04:29.768Z,98.60
2019-02-20T02:06:58.577Z,98.40
2019-02-20T02:09:27.352Z,98.50
2019-02-20T02:11:56.135Z,98.50
2019-02-20T02:14:24.902Z,98.50
2019-02-20T02:16:54.054Z,98.20
2019-02-20T02:19:22.812Z,98.50
2019-02-20T02:21:51.599Z,98.50
2019-02-20T02:24:20.682Z,98.60
2019-02-20T02:26:49.453Z,99.60
2019-02-20T02:29:18.477Z,98.60
2019-02-20T02:31:47.251Z,98.70
2019-02-20T02:34:16.019Z,98.60
2019-02-20T02:39:13.266Z,98.30
2019-02-20T02:41:42.036Z,98.30
2019-02-20T02:44:10.824Z,98.30
2019-02-20T02:46:39.594Z,98.40
2019-02-20T02:49:08.361Z,98.50
2019-02-20T02:51:37.140Z,98.40
2019-02-20T02:54:05.916Z,98.50
2019-02-20T02:56:34.704Z,98.40
2019-02-20T02:59:03.468Z,98.50
2019-02-20T03:01:32.245Z,98.50
2019-02-20T03:04:01.112Z,98.70
2019-02-20T03:06:30.032Z,98.60
2019-02-20T03:08:58.855Z,98.60
2019-02-20T03:11:27.934Z,98.50
2019-02-20T03:13:56.720Z,98.60
2019-02-20T03:16:25.480Z,98.60
2019-02-20T03:18:54.266Z,98.60
2019-02-20T03:21:23.045Z,98.60
2019-02-20T03:23:51.820Z,98.60
2019-02-20T03:26:20.590Z,98.90
2019-02-20T03:28:49.607Z,98.40
2019-02-20T03:31:18.360Z,98.50
2019-02-20T03:33:47.154Z,98.60
2019-02-20T03:36:15.904Z,98.50
2019-02-20T03:38:44.776Z,98.40
2019-02-20T03:41:13.536Z,98.40
2019-02-20T03:46:10.646Z,98.40
2019-02-20T03:48:39.426Z,98.50
2019-02-20T03:51:08.449Z,98.50
2019-02-20T03:53:37.233Z,98.40
2019-02-20T03:56:06.144Z,98.40
2019-02-20T03:58:34.938Z,98.30
2019-02-20T04:01:03.707Z,98.30
2019-02-20T04:03:32.628Z,98.80
2019-02-20T04:06:01.408Z,98.20
2019-02-20T04:08:30.236Z,98.20
2019-02-20T04:10:59.012Z,98.20
2019-02-20T04:13:27.805Z,98.30
2019-02-20T04:18:24.897Z,98.40
2019-02-20T04:20:53.661Z,98.40
2019-02-20T04:23:22.430Z,98.30
2019-02-20T04:25:51.193Z,98.20
2019-02-20T04:28:19.998Z,98.30
2019-02-20T04:30:48.764Z,98.60
2019-02-20T04:33:17.548Z,98.20
2019-02-20T04:38:14.664Z,98.20
2019-02-20T04:40:43.437Z,98.30
2019-02-20T04:43:12.472Z,98.30
2019-02-20T04:45:41.258Z,98.40
2019-02-20T04:48:10.115Z,98.30
2019-02-20T04:50:38.971Z,98.30
2019-02-20T04:53:07.821Z,98.30
2019-02-20T04:55:36.600Z,98.30
2019-02-20T04:58:18.041Z,98.30
2019-02-20T05:00:46.948Z,98.40
2019-02-20T05:03:15.794Z,98.30
2019-02-20T05:05:44.568Z,98.30
2019-02-20T05:08:13.346Z,98.30
2019-02-20T05:10:42.120Z,98.30
2019-02-20T05:13:10.881Z,98.30
2019-02-20T05:15:39.800Z,98.20
2019-02-20T05:18:08.640Z,98.10
2019-02-20T05:20:37.420Z,98.20
2019-02-20T05:23:06.188Z,98.30
2019-02-20T05:25:34.984Z,98.30
2019-02-20T05:28:03.838Z,98.20
2019-02-20T05:30:32.610Z,98.10
2019-02-20T05:33:01.397Z,98.20
2019-02-20T05:35:30.243Z,98.20
2019-02-20T05:37:59.033Z,98.20
2019-02-20T05:40:27.937Z,98.20
2019-02-20T05:42:56.744Z,98.30
2019-02-20T05:45:25.531Z,98.20
2019-02-20T05:50:22.946Z,98.10
2019-02-20T05:52:51.724Z,98.20
2019-02-20T05:55:20.498Z,98.20
2019-02-20T05:57:49.285Z,98.30
2019-02-20T06:00:18.054Z,98.30
2019-02-20T06:02:46.912Z,98.20
2019-02-20T06:05:15.770Z,98.30
2019-02-20T06:07:44.541Z,98.30
2019-02-20T06:10:13.327Z,98.20
2019-02-20T06:12:42.097Z,98.20
2019-02-20T06:15:11.075Z,98.20
2019-02-20T06:17:39.824Z,98.20
2019-02-20T06:20:08.929Z,98.20
2019-02-20T06:22:37.876Z,98.30
2019-02-20T06:25:07.032Z,98.20
2019-02-20T06:27:35.965Z,98.20
2019-02-20T06:30:05.630Z,98.40
2019-02-20T06:32:34.399Z,98.40
2019-02-20T06:35:03.404Z,98.50
2019-02-20T06:37:32.214Z,98.50
2019-02-20T06:40:01.047Z,98.60
2019-02-20T06:42:29.857Z,98.70
2019-02-20T06:44:58.749Z,98.80
2019-02-20T06:47:27.736Z,98.80
2019-02-20T06:49:56.513Z,98.60
2019-02-20T06:52:25.396Z,98.80
2019-02-20T06:54:54.410Z,98.60
2019-02-20T06:57:23.541Z,98.60
2019-02-20T06:59:52.412Z,98.50
2019-02-20T07:02:21.341Z,98.40
2019-02-20T07:05:43.695Z,98.40
2019-02-20T07:09:01.184Z,98.20
2019-02-20T07:12:24.609Z,98.10
2019-02-20T07:15:18.517Z,98.10
2019-02-20T07:18:15.797Z,98.10
2019-02-20T07:21:28.210Z,98.00
2019-02-20T07:24:07.219Z,98.10
2019-02-20T07:27:18.945Z,98.10
2019-02-20T07:30:01.728Z,98.60
2019-02-20T07:32:31.396Z,98.00
2019-02-20T07:35:00.379Z,97.90
2019-02-20T07:37:29.232Z,97.60
2019-02-20T07:39:58.110Z,97.50
2019-02-20T07:42:26.977Z,97.80
2019-02-20T07:44:55.747Z,97.50
2019-02-20T07:47:24.515Z,97.30
2019-02-20T07:49:53.283Z,97.20
2019-02-20T07:52:22.459Z,97.20
2019-02-20T07:54:51.354Z,97.20
2019-02-20T07:57:20.133Z,97.50
2019-02-20T07:59:48.919Z,96.90
2019-02-20T08:02:17.696Z,97.10
2019-02-20T08:04:46.729Z,96.80
2019-02-20T08:07:15.499Z,96.60
2019-02-20T08:09:44.325Z,96.50
2019-02-20T08:12:13.108Z,96.20
2019-02-20T08:14:41.881Z,96.10
2019-02-20T08:17:10.706Z,96.20
2019-02-20T08:19:39.550Z,96.00
2019-02-20T08:22:08.363Z,96.20
2019-02-20T08:24:37.136Z,95.60
2019-02-20T08:27:06.058Z,96.00
2019-02-20T08:29:34.835Z,95.60
2019-02-20T08:32:03.593Z,95.80
2019-02-20T08:34:32.387Z,95.40
2019-02-20T08:37:01.152Z,94.20
2019-02-20T08:39:30.016Z,94.10
2019-02-20T08:41:58.774Z,94.20
2019-02-20T08:44:27.548Z,93.90
2019-02-20T08:46:56.324Z,93.30
2019-02-20T08:49:25.158Z,93.20
2019-02-20T08:51:53.946Z,92.50
2019-02-20T08:54:22.718Z,91.90
2019-02-20T08:56:51.473Z,92.20
2019-02-20T08:59:20.263Z,91.70
2019-02-20T09:01:49.086Z,91.70
2019-02-20T09:04:17.937Z,91.70
2019-02-20T09:06:46.796Z,92.00
2019-02-20T09:09:15.561Z,91.10
2019-02-20T09:11:45.589Z,90.90
2019-02-20T09:14:14.474Z,90.30
2019-02-20T09:16:43.241Z,90.00
2019-02-20T09:21:40.313Z,89.70
2019-02-20T09:24:09.072Z,90.00
2019-02-20T09:26:37.938Z,89.60
2019-02-20T09:29:06.688Z,88.90
2019-02-20T09:31:35.489Z,89.10
2019-02-20T09:34:04.324Z,89.00
2019-02-20T09:36:33.104Z,87.50
2019-02-20T09:39:38.873Z,87.10
2019-02-20T09:42:16.219Z,88.20
2019-02-20T09:44:49.200Z,87.50
2019-02-20T09:47:18.817Z,87.10
2019-02-20T09:49:47.645Z,87.30
2019-02-20T09:52:16.419Z,86.10
2019-02-20T09:54:45.427Z,86.30
2019-02-20T09:57:14.364Z,85.50
2019-02-20T09:59:43.196Z,84.50
2019-02-20T10:02:12.085Z,85.40
2019-02-20T10:04:40.871Z,84.70
2019-02-20T10:09:37.944Z,83.60
2019-02-20T10:12:06.799Z,83.80
2019-02-20T10:14:35.801Z,83.00
2019-02-20T10:17:04.586Z,83.40
2019-02-20T10:19:33.561Z,83.20
2019-02-20T10:22:02.669Z,82.90
2019-02-20T10:24:31.581Z,83.00
2019-02-20T10:27:01.009Z,82.80
2019-02-20T10:29:30.093Z,82.80
2019-02-20T10:31:58.872Z,83.30
2019-02-20T10:34:27.689Z,83.20
2019-02-20T10:36:56.614Z,82.40
2019-02-20T10:39:25.384Z,82.80
2019-02-20T10:41:54.236Z,83.10
2019-02-20T10:44:23.029Z,82.70
2019-02-20T10:46:51.892Z,82.40
2019-02-20T10:49:20.687Z,81.60
2019-02-20T10:51:49.495Z,81.90
2019-02-20T10:54:18.333Z,81.20
2019-02-20T10:56:47.259Z,82.00
2019-02-20T10:59:16.105Z,81.20
2019-02-20T11:01:44.872Z,81.60
2019-02-20T11:04:13.910Z,80.80
2019-02-20T11:06:42.984Z,80.20
2019-02-20T11:09:11.841Z,77.70
2019-02-20T11:11:40.813Z,78.50
2019-02-20T11:14:09.659Z,78.90
2019-02-20T11:16:38.998Z,78.20
2019-02-20T11:19:07.930Z,77.40
2019-02-20T11:21:36.696Z,77.60
2019-02-20T11:24:05.459Z,78.00
2019-02-20T11:26:43.279Z,76.70
2019-02-20T11:29:04.865Z,76.10
2019-02-20T11:31:33.885Z,76.70
2019-02-20T11:34:02.793Z,76.20
2019-02-20T11:36:31.649Z,75.70
2019-02-20T11:39:00.492Z,75.40
2019-02-20T11:41:29.361Z,75.40
2019-02-20T11:43:58.143Z,75.40
2019-02-20T11:46:27.033Z,75.50
2019-02-20T11:48:55.853Z,75.70
2019-02-20T11:51:24.832Z,76.00
2019-02-20T11:53:53.661Z,75.50
2019-02-20T11:56:26.573Z,74.80
2019-02-20T11:58:53.128Z,75.40
2019-02-20T12:01:21.891Z,75.50
2019-02-20T12:03:50.671Z,74.60
2019-02-20T12:06:19.460Z,74.40
2019-02-20T12:11:16.839Z,74.70
2019-02-20T12:13:48.623Z,74.30
2019-02-20T12:16:17.510Z,75.40
2019-02-20T12:18:49.105Z,75.20
2019-02-20T12:21:18.870Z,75.00
2019-02-20T12:23:47.790Z,74.80
2019-02-20T12:26:16.650Z,75.10
2019-02-20T12:28:47.220Z,75.30
2019-02-20T12:31:16.197Z,74.80
2019-02-20T12:33:45.201Z,74.20
2019-02-20T12:38:42.401Z,73.70
2019-02-20T12:41:11.257Z,74.20
2019-02-20T12:43:40.043Z,73.80
2019-02-20T12:46:08.945Z,74.00
2019-02-20T12:48:39.017Z,73.90
2019-02-20T12:51:07.996Z,74.00
2019-02-20T12:53:36.782Z,73.70
2019-02-20T12:56:09.987Z,73.70
2019-02-20T12:58:38.229Z,73.20
2019-02-20T13:01:06.949Z,73.10
2019-02-20T13:03:35.746Z,73.20
2019-02-20T13:06:04.797Z,72.60
2019-02-20T13:08:33.719Z,73.20
2019-02-20T13:11:02.558Z,72.60
2019-02-20T13:13:31.494Z,71.40
2019-02-20T13:23:25.437Z,70.60
2019-02-20T13:25:54.326Z,69.00
2019-02-20T13:30:51.756Z,66.90
2019-02-20T13:33:20.556Z,67.00
2019-02-20T13:35:51.542Z,65.70
2019-02-20T13:38:20.396Z,65.60
2019-02-20T13:40:49.261Z,63.00
2019-02-20T13:45:46.770Z,60.90
2019-02-20T13:48:15.625Z,61.60
2019-02-20T13:53:14.231Z,63.90
2019-02-20T13:55:43.354Z,64.30
2019-02-20T13:58:12.282Z,65.30
2019-02-20T14:00:41.145Z,65.20
2019-02-20T14:03:09.962Z,65.40
2019-02-20T14:05:38.744Z,66.30
2019-02-20T14:08:07.601Z,66.20
2019-02-20T14:10:36.462Z,66.80
2019-02-20T14:18:02.397Z,66.30
2019-02-20T14:20:31.177Z,66.20
2019-02-20T14:23:00.035Z,66.70
2019-02-20T14:27:57.224Z,67.00
2019-02-20T14:30:26.072Z,66.80
2019-02-20T14:32:54.837Z,67.00
2019-02-20T14:37:52.242Z,67.60
2019-02-20T14:40:21.011Z,67.70
2019-02-20T14:47:46.581Z,67.40
2019-02-20T14:50:15.443Z,67.50
2019-02-20T14:52:44.203Z,67.10
2019-02-20T14:55:13.055Z,66.90
2019-02-20T15:00:11.449Z,66.50
2019-02-20T15:02:40.212Z,66.70
2019-02-20T15:05:09.160Z,66.90
2019-02-20T15:10:07.118Z,67.40
2019-02-20T15:17:34.682Z,68.50
2019-02-20T15:20:03.540Z,68.70
2019-02-20T15:22:32.787Z,69.30
2019-02-20T15:25:01.673Z,69.40
2019-02-20T15:29:59.001Z,69.10
2019-02-20T15:32:27.848Z,69.30
2019-02-20T15:34:56.633Z,69.50
2019-02-20T15:37:25.415Z,69.30
2019-02-20T15:42:23.025Z,69.50
2019-02-20T15:44:51.806Z,69.30
2019-02-20T15:54:45.714Z,70.70
2019-02-20T15:57:14.553Z,71.20
2019-02-20T15:59:43.393Z,71.40
2019-02-20T16:02:12.325Z,71.40
2019-02-20T16:04:41.083Z,71.70
2019-02-20T16:09:38.194Z,72.20
2019-02-20T16:12:07.445Z,72.30
2019-02-20T16:14:36.208Z,72.50
2019-02-20T16:17:05.044Z,73.00
2019-02-20T16:19:33.893Z,73.10
2019-02-20T16:22:03.177Z,73.30
2019-02-20T16:24:32.176Z,73.40
2019-02-20T16:27:01.093Z,73.60
2019-02-20T16:29:30.189Z,74.00
2019-02-20T16:31:58.967Z,74.60
2019-02-20T16:39:24.426Z,76.10
2019-02-20T16:44:21.576Z,77.40
2019-02-20T16:49:18.809Z,78.50
2019-02-20T16:51:47.648Z,78.90
2019-02-20T16:54:16.428Z,79.50
2019-02-20T16:56:45.264Z,80.00
2019-02-20T16:59:14.185Z,80.20
2019-02-20T17:01:43.331Z,80.50
2019-02-20T17:04:12.241Z,81.10
2019-02-20T17:06:41.019Z,81.40
2019-02-20T17:14:06.698Z,82.30
2019-02-20T17:16:35.622Z,82.70
2019-02-20T17:24:01.290Z,83.60
2019-02-20T17:26:30.055Z,83.70
2019-02-20T17:28:58.850Z,84.00
2019-02-20T17:31:27.762Z,84.30
2019-02-20T17:36:25.317Z,85.10
2019-02-20T17:38:54.184Z,85.50
2019-02-20T17:41:23.413Z,85.80
2019-02-20T17:46:20.696Z,86.30
2019-02-20T17:48:49.470Z,86.50
2019-02-20T17:51:18.227Z,87.10
2019-02-20T17:58:43.737Z,88.60
2019-02-20T18:01:16.620Z,88.70
2019-02-20T18:03:45.657Z,89.30
2019-02-20T18:06:14.505Z,89.50
2019-02-20T18:08:43.525Z,89.80
2019-02-20T18:13:40.608Z,90.20
2019-02-20T18:16:09.373Z,90.30
2019-02-20T18:18:38.227Z,90.40
2019-02-20T18:21:06.993Z,90.60
2019-02-20T18:23:36.017Z,90.40
2019-02-20T18:31:01.520Z,90.70
2019-02-20T18:33:30.296Z,90.80
2019-02-20T18:35:59.146Z,91.10
2019-02-20T18:40:56.720Z,90.90
2019-02-20T18:43:25.496Z,91.40
2019-02-20T18:48:22.810Z,91.50
2019-02-20T18:50:51.875Z,91.70
2019-02-20T18:53:20.792Z,91.80
2019-02-20T18:58:19.017Z,92.10
2019-02-20T19:00:48.181Z,92.10
2019-02-20T19:03:16.972Z,92.20
2019-02-20T19:11:03.633Z,92.30
2019-02-20T19:19:18.200Z,92.80
2019-02-20T19:22:22.635Z,93.00
2019-02-20T19:25:43.937Z,93.10
2019-02-20T19:28:54.393Z,93.00
2019-02-20T19:31:43.476Z,93.20
2019-02-20T19:34:27.128Z,93.10
2019-02-20T19:37:15.147Z,93.40
2019-02-20T19:40:29.137Z,93.40
2019-02-20T19:43:27.502Z,93.60
2019-02-20T19:46:34.804Z,93.50
2019-02-20T19:49:25.280Z,93.80
2019-02-20T19:52:13.919Z,93.90
2019-02-20T19:54:51.712Z,93.90
2019-02-20T19:58:03.884Z,94.20
2019-02-20T20:01:22.828Z,94.00
2019-02-20T20:04:01.546Z,94.20
2019-02-20T20:07:16.197Z,94.40
2019-02-20T20:13:21.241Z,94.40
2019-02-20T20:16:22.303Z,94.70
2019-02-20T20:19:37.349Z,94.60
2019-02-20T20:22:59.603Z,94.80
2019-02-20T20:25:53.677Z,94.70
2019-02-20T20:29:12.529Z,95.10
2019-02-20T20:32:27.921Z,95.10
2019-02-20T20:35:27.354Z,94.90
2019-02-20T20:38:39.570Z,95.00
2019-02-20T20:41:34.413Z,95.30
2019-02-20T20:45:00.040Z,95.00
2019-02-20T20:47:39.166Z,95.20
2019-02-20T20:50:27.211Z,95.30
2019-02-20T20:53:30.766Z,95.30
2019-02-20T20:56:57.662Z,95.50
2019-02-20T21:00:02.134Z,95.50
2019-02-20T21:02:41.378Z,95.30
2019-02-20T21:05:41.462Z,95.40
2019-02-20T21:08:54.483Z,95.60
2019-02-20T21:11:55.150Z,95.80
2019-02-20T21:14:51.977Z,95.70
2019-02-20T21:17:37.013Z,95.70
2019-02-20T21:20:32.592Z,95.80
2019-02-20T21:23:24.792Z,95.80
2019-02-20T21:26:36.729Z,96.30
2019-02-20T21:29:36.897Z,96.10
2019-02-20T21:32:25.496Z,96.10
2019-02-20T21:38:40.397Z,96.50
2019-02-20T21:41:40.949Z,96.80
2019-02-20T21:44:29.419Z,97.00
2019-02-20T21:47:48.712Z,96.90
2019-02-20T21:50:30.998Z,96.80
2019-02-20T21:53:13.961Z,96.80
2019-02-20T21:56:19.464Z,96.80
2019-02-20T21:59:38.882Z,96.30
2019-02-20T22:02:09.672Z,96.80
2019-02-20T22:05:31.914Z,97.00
2019-02-20T22:08:48.982Z,97.10
2019-02-20T22:14:26.620Z,96.90
2019-02-20T22:17:24.258Z,97.20
2019-02-20T22:20:42.396Z,97.30
2019-02-20T22:23:36.615Z,96.90
2019-02-20T22:26:28.520Z,97.40
2019-02-20T22:29:38.277Z,96.70
2019-02-20T22:32:42.189Z,97.20
2019-02-20T22:35:54.693Z,97.20
2019-02-20T22:38:49.056Z,97.10
2019-02-20T22:42:11.520Z,97.50
2019-02-20T22:45:02.454Z,97.40
2019-02-20T22:47:56.216Z,97.40
2019-02-20T22:51:09.333Z,97.30
2019-02-20T22:54:14.513Z,97.50
2019-02-20T22:57:21.741Z,98.10
2019-02-20T23:00:19.863Z,97.10
2019-02-20T23:03:05.920Z,97.40
2019-02-20T23:06:09.797Z,97.60
2019-02-20T23:09:13.568Z,97.50
2019-02-20T23:14:55.977Z,97.50
2019-02-20T23:19:55.067Z,97.80
2019-02-20T23:22:23.995Z,97.40
2019-02-20T23:24:52.924Z,97.50
2019-02-20T23:27:21.761Z,97.50
2019-02-20T23:29:50.700Z,98.10
2019-02-20T23:32:19.552Z,97.60
2019-02-20T23:34:48.344Z,97.50
2019-02-20T23:37:17.187Z,97.60
2019-02-20T23:39:46.368Z,97.70
2019-02-20T23:42:15.192Z,98.10
2019-02-20T23:44:44.108Z,98.00
2019-02-20T23:47:12.884Z,97.80
2019-02-20T23:49:41.690Z,98.00
2019-02-20T23:52:10.526Z,98.00
2019-02-20T23:54:39.320Z,98.20
2019-02-20T23:57:08.100Z,98.60
2019-02-20T23:59:36.866Z,98.20
